Time;durP1;ratioP1;P1;durP2;ratioP2;P2;SDS_P1;SDS_P2;PMS_P1;PMS_P2;Temp;Humidity;BMP_temperature;BMP_pressure;BME280_temperature;BME280_humidity;BME280_pressure;Samples;Min_cycle;Max_cycle;Signal;HPM_P1;HPM_P2
2021/06/18 00:01:40;;;;;;;8.93;6.22;;;27.00;67.40;;;;;;4970993;28;20031;-89
2021/06/18 00:04:06;;;;;;;7.15;5.95;;;26.90;67.30;;;;;;4937960;28;20039;-89
2021/06/18 00:06:32;;;;;;;10.43;6.15;;;27.00;67.70;;;;;;4971223;28;20031;-89
2021/06/18 00:08:57;;;;;;;7.03;6.00;;;26.90;67.70;;;;;;4954802;28;20030;-87
2021/06/18 00:11:23;;;;;;;7.65;6.50;;;26.80;67.80;;;;;;4970878;28;20127;-88
2021/06/18 00:13:49;;;;;;;9.57;6.07;;;26.80;67.80;;;;;;4970951;28;20056;-88
2021/06/18 00:16:14;;;;;;;8.05;6.28;;;26.80;68.00;;;;;;4954575;28;20118;-88
2021/06/18 00:18:42;;;;;;;7.60;6.80;;;26.80;68.20;;;;;;4970872;28;20073;-88
2021/06/18 00:21:08;;;;;;;8.30;6.82;;;26.70;68.30;;;;;;4970947;28;20019;-88
2021/06/18 00:23:33;;;;;;;8.88;6.72;;;26.70;68.40;;;;;;4971018;28;20038;-89
2021/06/18 00:25:59;;;;;;;8.00;6.53;;;26.60;68.30;;;;;;4970722;28;20364;-89
2021/06/18 00:28:25;;;;;;;8.60;6.70;;;26.60;68.40;;;;;;4971670;28;20042;-89
2021/06/18 00:30:50;;;;;;;8.25;7.03;;;26.50;68.50;;;;;;4954297;28;20058;-89
2021/06/18 00:33:16;;;;;;;9.88;7.28;;;26.50;68.90;;;;;;4954553;28;20483;-89
2021/06/18 00:35:42;;;;;;;8.82;6.82;;;26.50;69.10;;;;;;4951632;28;20365;-88
2021/06/18 00:38:07;;;;;;;10.98;7.15;;;26.50;69.20;;;;;;4954302;28;20076;-88
2021/06/18 00:40:33;;;;;;;9.65;7.35;;;26.40;69.40;;;;;;4970762;28;20128;-88
2021/06/18 00:42:59;;;;;;;10.48;7.53;;;26.40;69.50;;;;;;4970629;28;20117;-88
2021/06/18 00:45:25;;;;;;;11.30;7.68;;;26.30;69.50;;;;;;4938975;28;20042;-88
2021/06/18 00:47:55;;;;;;;8.52;7.20;;;26.30;69.60;;;;;;4970302;28;20133;-89
2021/06/18 00:50:21;;;;;;;9.50;7.10;;;26.30;69.60;;;;;;4970352;28;20601;-89
2021/06/18 00:52:47;;;;;;;8.68;7.07;;;26.30;69.60;;;;;;4970239;28;20035;-88
2021/06/18 00:55:13;;;;;;;9.52;7.45;;;26.20;69.50;;;;;;4938472;28;20033;-89
2021/06/18 00:57:39;;;;;;;10.57;7.70;;;26.20;69.50;;;;;;4970286;28;20027;-88
2021/06/18 01:00:07;;;;;;;9.82;7.53;;;26.20;69.50;;;;;;4970036;28;20030;-89
2021/06/18 01:02:33;;;;;;;11.07;7.82;;;26.20;69.70;;;;;;4959849;28;20089;-88
2021/06/18 01:04:59;;;;;;;9.05;7.60;;;26.10;69.70;;;;;;4966536;28;20568;-89
2021/06/18 01:07:45;;;;;;;9.30;8.23;;;26.10;69.80;;;;;;4969948;28;20121;-88
2021/06/18 01:10:15;;;;;;;10.23;8.65;;;26.10;70.20;;;;;;4969703;28;20022;-88
2021/06/18 01:13:10;;;;;;;12.25;8.93;;;26.00;69.90;;;;;;4970040;28;20034;-89
2021/06/18 01:15:48;;;;;;;11.27;8.45;;;26.00;70.30;;;;;;4970932;28;20031;-89
2021/06/18 01:18:16;;;;;;;10.10;8.38;;;25.90;70.10;;;;;;4969978;28;20031;-89
2021/06/18 01:20:55;;;;;;;11.77;9.13;;;25.90;70.00;;;;;;4971064;28;20023;-89
2021/06/18 01:23:29;;;;;;;12.18;9.27;;;25.90;70.10;;;;;;4970248;28;20030;-89
2021/06/18 01:26:04;;;;;;;10.60;8.95;;;25.80;70.40;;;;;;4969448;28;20030;-88
2021/06/18 01:28:32;;;;;;;10.35;9.25;;;25.80;70.50;;;;;;5020420;22;20136;-88
2021/06/18 01:30:59;;;;;;;12.05;9.40;;;25.80;70.60;;;;;;5070686;28;20048;-88
2021/06/18 01:33:27;;;;;;;12.40;9.93;;;25.70;70.70;;;;;;5046344;28;20035;-89
2021/06/18 01:35:57;;;;;;;11.95;9.52;;;25.70;70.90;;;;;;5074972;28;20029;-89
2021/06/18 01:38:25;;;;;;;12.13;9.60;;;25.70;70.90;;;;;;5054421;28;20021;-89
2021/06/18 01:40:56;;;;;;;13.63;10.15;;;25.70;71.10;;;;;;5062066;28;20385;-88
2021/06/18 01:43:23;;;;;;;12.27;9.80;;;25.60;71.10;;;;;;5060339;28;20024;-87
2021/06/18 01:45:50;;;;;;;12.50;9.85;;;25.60;71.10;;;;;;5038023;28;20093;-88
2021/06/18 01:48:18;;;;;;;11.07;9.52;;;25.60;71.20;;;;;;5038244;28;20033;-89
2021/06/18 01:50:45;;;;;;;11.75;9.82;;;25.60;71.40;;;;;;5037716;28;20020;-88
2021/06/18 01:53:17;;;;;;;12.77;10.38;;;25.50;71.40;;;;;;5041646;28;20389;-89
2021/06/18 01:55:47;;;;;;;11.18;9.77;;;25.50;71.50;;;;;;5076112;28;20023;-89
2021/06/18 01:58:15;;;;;;;10.55;9.40;;;25.50;71.50;;;;;;5058083;28;20107;-89
2021/06/18 02:00:43;;;;;;;11.15;9.68;;;25.40;71.70;;;;;;5089395;28;20069;-89
2021/06/18 02:03:12;;;;;;;11.73;9.73;;;25.40;71.60;;;;;;5065145;28;20023;-88
2021/06/18 02:05:39;;;;;;;12.15;9.98;;;25.40;71.60;;;;;;5064832;28;20119;-89
2021/06/18 02:08:07;;;;;;;11.68;9.60;;;25.40;71.70;;;;;;5040214;28;20375;-89
2021/06/18 02:10:38;;;;;;;12.48;9.48;;;25.30;71.80;;;;;;5041129;28;20127;-89
2021/06/18 02:13:07;;;;;;;13.68;9.80;;;25.30;71.90;;;;;;5071795;28;20500;-89
2021/06/18 02:15:35;;;;;;;10.73;9.63;;;25.30;72.00;;;;;;5052824;28;20051;-88
2021/06/18 02:18:02;;;;;;;10.50;9.02;;;25.20;72.00;;;;;;5043980;28;20025;-88
2021/06/18 02:20:29;;;;;;;10.80;9.43;;;25.20;72.20;;;;;;5041132;28;20060;-89
2021/06/18 02:22:55;;;;;;;11.77;9.40;;;25.20;72.40;;;;;;5054900;28;20028;-89
2021/06/18 02:25:22;;;;;;;11.95;9.90;;;25.20;72.40;;;;;;5041169;28;20024;-89
2021/06/18 02:27:48;;;;;;;11.10;9.70;;;25.20;72.40;;;;;;5055063;28;20069;-89
2021/06/18 02:30:15;;;;;;;10.80;9.70;;;25.20;72.50;;;;;;5027039;28;20055;-88
2021/06/18 02:32:43;;;;;;;12.18;9.77;;;25.20;72.40;;;;;;5057499;28;20081;-89
2021/06/18 02:35:10;;;;;;;10.55;9.38;;;25.10;72.40;;;;;;5060963;28;20027;-89
2021/06/18 02:37:36;;;;;;;11.30;9.45;;;25.10;72.50;;;;;;5077270;28;20473;-88
2021/06/18 02:40:04;;;;;;;11.82;10.25;;;25.10;72.60;;;;;;5061478;28;20021;-88
2021/06/18 02:42:30;;;;;;;11.70;9.57;;;25.10;72.80;;;;;;5073924;28;20028;-89
2021/06/18 02:44:56;;;;;;;11.05;9.82;;;25.00;72.80;;;;;;5057457;28;20377;-89
2021/06/18 02:47:53;;;;;;;12.05;10.00;;;25.00;72.90;;;;;;5040599;28;20109;-89
2021/06/18 02:50:36;;;;;;;13.63;9.98;;;25.00;73.30;;;;;;5042911;28;20029;-88
2021/06/18 02:53:29;;;;;;;12.98;10.18;;;24.90;73.10;;;;;;5074733;28;20115;-88
2021/06/18 02:56:43;;;;;;;12.07;10.40;;;24.90;73.20;;;;;;5046268;28;20021;-89
2021/06/18 02:59:42;;;;;;;11.55;9.90;;;24.90;73.50;;;;;;5028217;28;20058;-89
2021/06/18 03:02:15;;;;;;;11.63;10.40;;;24.80;73.60;;;;;;5067134;28;20118;-88
2021/06/18 03:04:43;;;;;;;11.05;9.95;;;24.80;73.60;;;;;;5075109;28;20020;-89
2021/06/18 03:07:14;;;;;;;11.88;9.75;;;24.80;73.70;;;;;;5048889;28;20028;-89
2021/06/18 03:09:48;;;;;;;10.63;9.02;;;24.80;73.90;;;;;;5056906;28;20028;-89
2021/06/18 03:12:16;;;;;;;11.77;10.57;;;24.80;74.00;;;;;;5056866;28;20032;-89
2021/06/18 03:14:47;;;;;;;12.93;10.20;;;24.70;74.10;;;;;;5056485;28;20028;-89
2021/06/18 03:17:18;;;;;;;12.85;9.82;;;24.70;74.10;;;;;;5056619;28;20024;-89
2021/06/18 03:19:48;;;;;;;12.68;10.85;;;24.70;74.20;;;;;;5054481;28;20024;-89
2021/06/18 03:22:15;;;;;;;12.13;10.33;;;24.60;74.40;;;;;;5056839;28;20033;-89
2021/06/18 03:24:44;;;;;;;12.57;10.80;;;24.60;74.50;;;;;;5074511;28;20267;-89
2021/06/18 03:27:10;;;;;;;11.85;9.95;;;24.60;74.70;;;;;;5056658;28;20024;-89
2021/06/18 03:29:38;;;;;;;12.25;10.63;;;24.60;74.70;;;;;;5074535;28;20174;-89
2021/06/18 03:32:05;;;;;;;14.75;10.63;;;24.60;74.90;;;;;;5056840;28;20017;-88
2021/06/18 03:34:31;;;;;;;11.73;10.20;;;24.60;74.90;;;;;;5069014;28;20020;-88
2021/06/18 03:36:58;;;;;;;13.07;10.82;;;24.60;75.10;;;;;;5041671;28;20495;-89
2021/06/18 03:39:25;;;;;;;12.02;9.98;;;24.50;75.20;;;;;;5040189;28;20086;-89
2021/06/18 03:41:51;;;;;;;13.40;11.23;;;24.50;75.20;;;;;;5070479;28;20032;-89
2021/06/18 03:44:19;;;;;;;13.70;11.32;;;24.50;75.40;;;;;;5048664;28;20145;-89
2021/06/18 03:46:46;;;;;;;15.43;11.85;;;24.50;75.60;;;;;;5061388;28;20052;-89
2021/06/18 03:49:13;;;;;;;13.13;10.57;;;24.50;75.50;;;;;;5046831;28;20423;-88
2021/06/18 03:51:38;;;;;;;11.88;10.50;;;24.50;75.50;;;;;;5046277;28;20040;-89
2021/06/18 03:54:05;;;;;;;11.80;10.55;;;24.50;75.70;;;;;;5056262;28;20078;-88
2021/06/18 03:56:32;;;;;;;13.10;9.85;;;24.50;75.80;;;;;;5067777;28;20016;-89
2021/06/18 03:58:59;;;;;;;11.35;10.18;;;24.50;75.80;;;;;;5045364;28;20028;-89
2021/06/18 04:01:26;;;;;;;11.93;10.50;;;24.50;76.00;;;;;;5076301;28;20504;-89
2021/06/18 04:03:53;;;;;;;13.45;9.85;;;24.50;76.00;;;;;;5074462;28;20069;-88
2021/06/18 04:06:20;;;;;;;11.25;10.02;;;24.50;76.10;;;;;;5039818;28;20123;-88
2021/06/18 04:08:46;;;;;;;14.00;10.82;;;24.50;76.10;;;;;;5056110;28;20021;-89
2021/06/18 04:11:13;;;;;;;18.80;15.43;;;24.50;76.00;;;;;;5062490;28;20034;-88
2021/06/18 04:13:40;;;;;;;19.95;17.65;;;24.40;76.30;;;;;;5059145;28;20093;-87
2021/06/18 04:16:10;;;;;;;18.75;15.32;;;24.10;77.40;;;;;;5074725;28;20008;-87
2021/06/18 04:18:41;;;;;;;16.38;13.98;;;23.90;78.70;;;;;;5064438;28;20078;-87
2021/06/18 04:21:09;;;;;;;12.60;10.68;;;23.60;78.70;;;;;;5088564;28;20038;-89
2021/06/18 04:23:35;;;;;;;14.32;11.18;;;23.50;79.30;;;;;;5040408;28;20149;-89
2021/06/18 04:26:01;;;;;;;12.52;9.38;;;23.50;80.10;;;;;;5026046;28;20189;-89
2021/06/18 04:28:28;;;;;;;9.07;7.05;;;23.50;80.50;;;;;;5059615;28;20028;-89
2021/06/18 04:30:54;;;;;;;8.80;6.95;;;23.60;80.80;;;;;;5045217;28;20037;-88
2021/06/18 04:33:20;;;;;;;8.68;7.20;;;23.70;80.80;;;;;;5062438;28;20161;-89
2021/06/18 04:35:46;;;;;;;13.55;8.65;;;23.70;81.40;;;;;;5055401;28;20484;-89
2021/06/18 04:38:11;;;;;;;12.80;9.52;;;23.80;80.40;;;;;;5058715;28;20036;-89
2021/06/18 04:40:37;;;;;;;17.00;10.40;;;23.80;80.30;;;;;;5052568;28;20111;-88
2021/06/18 04:43:03;;;;;;;13.85;11.48;;;23.70;80.20;;;;;;5055394;28;20505;-88
2021/06/18 04:45:29;;;;;;;16.45;12.45;;;23.60;80.50;;;;;;5069316;28;20489;-88
2021/06/18 04:47:56;;;;;;;11.48;10.07;;;23.50;81.90;;;;;;5055613;28;20024;-89
2021/06/18 04:50:22;;;;;;;9.25;8.15;;;23.50;81.30;;;;;;5067721;28;20500;-89
2021/06/18 04:52:48;;;;;;;13.30;9.57;;;23.40;81.60;;;;;;5023113;28;20025;-89
2021/06/18 04:55:16;;;;;;;24.13;13.02;;;23.40;82.40;;;;;;5085121;28;20027;-89
2021/06/18 04:57:43;;;;;;;37.33;16.40;;;23.40;83.90;;;;;;5055693;28;20078;-87
2021/06/18 05:00:09;;;;;;;24.17;13.90;;;23.40;86.10;;;;;;5068361;28;20031;-87
2021/06/18 05:02:35;;;;;;;16.85;13.13;;;23.40;87.80;;;;;;5050838;28;20134;-84
2021/06/18 05:05:01;;;;;;;16.38;13.18;;;23.40;89.40;;;;;;5053080;28;20048;-84
2021/06/18 05:07:26;;;;;;;17.67;14.05;;;23.30;90.20;;;;;;5043621;28;20111;-84
2021/06/18 05:09:52;;;;;;;16.17;14.23;;;23.30;90.60;;;;;;5040514;28;20142;-84
2021/06/18 05:12:18;;;;;;;15.65;14.05;;;23.20;90.90;;;;;;5065984;28;20465;-84
2021/06/18 05:15:09;;;;;;;14.00;12.50;;;23.20;91.30;;;;;;5054802;28;20052;-84
2021/06/18 05:17:35;;;;;;;13.93;12.23;;;23.10;91.80;;;;;;5059197;28;20440;-85
2021/06/18 05:20:00;;;;;;;13.77;12.05;;;23.00;91.90;;;;;;5042852;28;20020;-85
2021/06/18 05:22:27;;;;;;;13.98;12.27;;;23.00;92.20;;;;;;5063628;28;20158;-84
2021/06/18 05:24:52;;;;;;;13.57;11.55;;;23.00;92.40;;;;;;5070004;28;20434;-84
2021/06/18 05:27:18;;;;;;;12.73;11.20;;;23.00;92.70;;;;;;5034209;28;20123;-84
2021/06/18 05:29:45;;;;;;;12.38;11.05;;;22.90;92.90;;;;;;5043797;28;20116;-84
2021/06/18 05:32:11;;;;;;;13.10;11.75;;;22.90;93.00;;;;;;5086067;28;20035;-85
2021/06/18 05:34:36;;;;;;;13.95;11.93;;;22.90;93.10;;;;;;5048359;28;20037;-85
2021/06/18 05:37:02;;;;;;;13.23;11.43;;;22.90;93.30;;;;;;5037828;28;20554;-85
2021/06/18 05:39:28;;;;;;;14.30;12.65;;;22.90;93.40;;;;;;5054693;28;20498;-84
2021/06/18 05:41:53;;;;;;;13.82;12.52;;;22.90;93.40;;;;;;5039584;28;20063;-85
2021/06/18 05:44:19;;;;;;;13.90;12.52;;;22.90;93.60;;;;;;5057940;28;20059;-84
2021/06/18 05:46:45;;;;;;;14.13;12.63;;;22.90;93.60;;;;;;5074836;28;20028;-84
2021/06/18 05:49:11;;;;;;;13.90;11.77;;;22.90;93.80;;;;;;5051469;28;20029;-84
2021/06/18 05:51:36;;;;;;;13.48;12.07;;;22.90;93.80;;;;;;5059160;28;20419;-84
2021/06/18 05:54:02;;;;;;;15.52;13.93;;;22.90;93.90;;;;;;5050884;28;20120;-85
2021/06/18 05:56:27;;;;;;;14.88;13.38;;;22.90;94.00;;;;;;5051863;28;20030;-84
2021/06/18 05:58:53;;;;;;;15.20;13.73;;;22.90;94.10;;;;;;5037526;28;20016;-84
2021/06/18 06:01:19;;;;;;;14.90;13.50;;;22.90;94.20;;;;;;5034125;28;20470;-84
2021/06/18 06:03:45;;;;;;;14.98;13.52;;;22.90;94.20;;;;;;5040819;28;20535;-84
2021/06/18 06:06:12;;;;;;;16.00;14.50;;;22.90;94.30;;;;;;5055883;28;20028;-84
2021/06/18 06:08:38;;;;;;;16.00;14.45;;;22.90;94.40;;;;;;5037803;28;20036;-84
2021/06/18 06:11:04;;;;;;;16.80;15.07;;;22.90;94.40;;;;;;5071979;28;20048;-84
2021/06/18 06:13:30;;;;;;;17.65;15.95;;;22.90;94.50;;;;;;5059487;28;20016;-85
2021/06/18 06:15:56;;;;;;;18.25;16.48;;;22.90;94.60;;;;;;5080311;28;20032;-85
2021/06/18 06:18:22;;;;;;;16.98;15.30;;;23.00;94.60;;;;;;5051017;28;20077;-84
2021/06/18 06:20:49;;;;;;;18.42;16.63;;;23.00;94.70;;;;;;5037243;28;20072;-84
2021/06/18 06:23:15;;;;;;;17.73;15.93;;;22.90;94.70;;;;;;5053938;28;20116;-84
2021/06/18 06:25:42;;;;;;;18.02;16.42;;;22.90;94.80;;;;;;5067706;28;20024;-85
2021/06/18 06:28:08;;;;;;;18.20;16.40;;;22.90;94.90;;;;;;5054893;28;20029;-84
2021/06/18 06:30:35;;;;;;;17.92;16.15;;;22.90;94.90;;;;;;5050083;28;20052;-84
2021/06/18 06:33:01;;;;;;;18.33;16.42;;;23.00;95.00;;;;;;5050064;28;20127;-84
2021/06/18 06:35:27;;;;;;;17.33;15.73;;;23.00;95.10;;;;;;5050304;28;20070;-85
2021/06/18 06:37:54;;;;;;;17.05;15.40;;;23.00;95.20;;;;;;5050449;28;20456;-85
2021/06/18 06:40:22;;;;;;;16.10;14.50;;;23.00;95.30;;;;;;5033816;28;20048;-84
2021/06/18 06:42:48;;;;;;;16.00;14.55;;;23.00;95.30;;;;;;5054340;28;20036;-84
2021/06/18 06:45:14;;;;;;;16.63;14.95;;;23.10;95.40;;;;;;5059533;28;20033;-84
2021/06/18 06:47:40;;;;;;;15.80;14.35;;;23.10;95.50;;;;;;5065253;28;20024;-84
2021/06/18 06:50:10;;;;;;;16.42;14.93;;;23.20;95.60;;;;;;5053612;28;20040;-85
2021/06/18 06:52:35;;;;;;;16.50;15.02;;;23.20;95.60;;;;;;5043930;28;20035;-84
2021/06/18 06:55:01;;;;;;;17.13;15.45;;;23.20;95.60;;;;;;5044405;28;20025;-84
2021/06/18 06:57:27;;;;;;;17.55;15.80;;;23.20;95.60;;;;;;5041695;28;20362;-84
2021/06/18 06:59:53;;;;;;;16.48;14.98;;;23.30;95.70;;;;;;5042733;28;20057;-84
2021/06/18 07:02:18;;;;;;;17.15;15.60;;;23.30;95.70;;;;;;5036253;28;20021;-84
2021/06/18 07:04:45;;;;;;;17.25;15.65;;;23.30;95.70;;;;;;5063755;28;20100;-84
2021/06/18 07:07:11;;;;;;;17.38;15.57;;;23.30;95.70;;;;;;5042758;28;20025;-84
2021/06/18 07:09:40;;;;;;;17.63;15.93;;;23.30;95.70;;;;;;5049975;28;20021;-84
2021/06/18 07:12:07;;;;;;;18.88;17.17;;;23.30;95.70;;;;;;5037134;28;20076;-84
2021/06/18 07:14:40;;;;;;;17.98;16.17;;;23.30;95.70;;;;;;5047543;28;20052;-84
2021/06/18 07:17:07;;;;;;;18.08;16.33;;;23.30;95.70;;;;;;5049523;28;20025;-84
2021/06/18 07:19:33;;;;;;;18.23;16.45;;;23.30;95.80;;;;;;5037727;28;20024;-84
2021/06/18 07:22:00;;;;;;;17.52;15.93;;;23.30;95.90;;;;;;5053107;28;20032;-84
2021/06/18 07:24:26;;;;;;;18.13;16.42;;;23.40;95.90;;;;;;5054113;28;20377;-84
2021/06/18 07:26:52;;;;;;;18.02;16.30;;;23.40;96.00;;;;;;5033318;28;20022;-84
2021/06/18 07:29:18;;;;;;;17.73;15.95;;;23.40;96.00;;;;;;5048413;22;20055;-87
2021/06/18 07:31:43;;;;;;;18.25;16.52;;;23.40;96.10;;;;;;4939435;28;20468;-86
2021/06/18 07:34:09;;;;;;;17.00;15.40;;;23.40;96.10;;;;;;4955240;28;20049;-86
2021/06/18 07:36:36;;;;;;;17.83;16.23;;;23.50;96.20;;;;;;4952313;28;20023;-86
2021/06/18 07:39:05;;;;;;;16.65;15.05;;;23.50;96.20;;;;;;4970413;28;20032;-86
2021/06/18 07:41:31;;;;;;;18.33;16.63;;;23.50;96.20;;;;;;4971350;28;20023;-86
2021/06/18 07:47:19;;;;;;;17.35;15.65;;;23.50;96.10;;;;;;4971746;28;20048;-86
2021/06/18 07:49:45;;;;;;;17.60;15.80;;;23.60;96.20;;;;;;4954872;28;20031;-85
2021/06/18 07:52:10;;;;;;;16.60;15.02;;;23.60;96.20;;;;;;4971624;28;20042;-85
2021/06/18 07:54:36;;;;;;;17.25;15.55;;;23.60;96.20;;;;;;4971589;28;20034;-85
2021/06/18 07:57:02;;;;;;;18.05;16.25;;;23.60;96.30;;;;;;4955807;28;20110;-86
2021/06/18 07:59:27;;;;;;;18.15;16.35;;;23.60;96.30;;;;;;4969399;28;20127;-85
2021/06/18 08:01:53;;;;;;;17.83;16.05;;;23.60;96.20;;;;;;4952263;29;20464;-86
2021/06/18 08:04:19;;;;;;;17.25;15.65;;;23.50;96.20;;;;;;4953579;28;20075;-85
2021/06/18 08:06:44;;;;;;;16.92;15.20;;;23.50;96.20;;;;;;4971471;28;20466;-86
2021/06/18 08:09:10;;;;;;;16.85;15.35;;;23.50;96.20;;;;;;4971108;28;20054;-85
2021/06/18 08:11:36;;;;;;;17.08;15.48;;;23.50;96.20;;;;;;4972540;28;20022;-86
2021/06/18 08:14:03;;;;;;;16.85;15.32;;;23.50;96.20;;;;;;4987853;28;20027;-85
2021/06/18 08:16:29;;;;;;;17.73;16.02;;;23.50;96.30;;;;;;4972493;28;20061;-86
2021/06/18 08:18:54;;;;;;;19.77;17.67;;;23.50;96.30;;;;;;4971424;28;20091;-85
2021/06/18 08:21:20;;;;;;;20.45;18.65;;;23.50;96.30;;;;;;4984046;28;20149;-86
2021/06/18 08:23:46;;;;;;;21.05;19.15;;;23.50;96.30;;;;;;4960804;28;20035;-86
2021/06/18 08:26:12;;;;;;;21.65;19.73;;;23.50;96.30;;;;;;4971197;28;20031;-86
2021/06/18 08:28:38;;;;;;;21.88;19.67;;;23.50;96.30;;;;;;4954086;28;20130;-85
2021/06/18 08:31:04;;;;;;;21.60;19.55;;;23.50;96.40;;;;;;4968001;28;20357;-85
2021/06/18 08:33:43;;;;;;;21.73;19.83;;;23.50;96.40;;;;;;4974402;28;20083;-85
2021/06/18 08:36:08;;;;;;;22.15;19.85;;;23.50;96.40;;;;;;4983700;28;20030;-85
2021/06/18 08:38:34;;;;;;;22.50;20.52;;;23.50;96.40;;;;;;4958801;28;20025;-85
2021/06/18 08:41:03;;;;;;;22.42;20.38;;;23.50;96.50;;;;;;4981504;28;20030;-85
2021/06/18 08:43:30;;;;;;;22.17;19.98;;;23.50;96.50;;;;;;4973066;28;20102;-84
2021/06/18 08:45:57;;;;;;;22.27;20.17;;;23.50;96.50;;;;;;4981441;28;20117;-84
2021/06/18 08:48:22;;;;;;;21.40;19.40;;;23.50;96.50;;;;;;4973809;28;20091;-85
2021/06/18 08:50:48;;;;;;;22.67;20.48;;;23.50;96.50;;;;;;4990037;28;20478;-85
2021/06/18 08:53:17;;;;;;;21.58;19.52;;;23.50;96.50;;;;;;4954513;28;20031;-85
2021/06/18 08:55:44;;;;;;;21.63;19.52;;;23.50;96.50;;;;;;5000096;28;20018;-85
2021/06/18 08:58:09;;;;;;;22.02;19.92;;;23.50;96.50;;;;;;5002885;28;20034;-85
2021/06/18 09:00:35;;;;;;;23.40;21.23;;;23.50;96.50;;;;;;4951638;28;20019;-86
2021/06/18 09:03:41;;;;;;;22.95;20.85;;;23.50;96.50;;;;;;4954710;28;20027;-85
2021/06/18 09:06:25;;;;;;;25.52;22.75;;;23.50;96.40;;;;;;4991409;28;20018;-86
2021/06/18 09:09:13;;;;;;;24.88;22.50;;;23.60;96.50;;;;;;4989764;28;20383;-86
2021/06/18 09:11:41;;;;;;;22.85;20.75;;;23.60;96.50;;;;;;4982564;28;20026;-85
2021/06/18 09:14:16;;;;;;;22.40;20.15;;;23.60;96.60;;;;;;4976194;28;20038;-85
2021/06/18 09:16:42;;;;;;;23.00;20.77;;;23.60;96.70;;;;;;4991147;28;20026;-85
2021/06/18 09:19:27;;;;;;;22.27;20.17;;;23.70;96.80;;;;;;4971476;28;20071;-85
2021/06/18 09:22:08;;;;;;;23.40;21.10;;;23.80;96.70;;;;;;4964525;28;20471;-85
2021/06/18 09:24:43;;;;;;;20.05;18.15;;;23.80;96.80;;;;;;4989473;28;20026;-85
2021/06/18 09:27:09;;;;;;;20.10;18.20;;;23.90;96.90;;;;;;4981926;28;20029;-85
2021/06/18 09:29:36;;;;;;;21.98;19.88;;;24.00;97.00;;;;;;4988396;28;20050;-85
2021/06/18 09:32:08;;;;;;;22.92;20.83;;;24.10;96.90;;;;;;4990713;28;20057;-85
2021/06/18 09:34:46;;;;;;;22.73;20.52;;;24.10;96.90;;;;;;4970387;28;20083;-86
2021/06/18 09:37:21;;;;;;;21.02;18.92;;;24.20;96.80;;;;;;4989679;28;20468;-86
2021/06/18 09:40:16;;;;;;;20.38;18.33;;;24.20;96.80;;;;;;4990763;28;20022;-86
2021/06/18 09:42:44;;;;;;;19.85;17.75;;;24.30;96.70;;;;;;5033925;28;20030;-86
2021/06/18 09:45:12;;;;;;;18.88;17.13;;;24.40;96.70;;;;;;4977965;28;20030;-86
2021/06/18 09:47:39;;;;;;;22.20;19.95;;;24.40;96.60;;;;;;4980716;28;20022;-87
2021/06/18 09:50:29;;;;;;;22.48;20.27;;;24.40;96.50;;;;;;4976141;28;20041;-87
2021/06/18 09:53:15;;;;;;;20.15;18.40;;;24.40;96.40;;;;;;4989670;28;20133;-87
2021/06/18 09:55:43;;;;;;;27.17;24.70;;;24.50;96.10;;;;;;4975371;28;20014;-87
2021/06/18 09:58:11;;;;;;;19.42;17.38;;;24.50;95.70;;;;;;4989683;28;20026;-87
2021/06/18 10:00:37;;;;;;;17.50;15.80;;;24.50;95.80;;;;;;4960103;28;20479;-86
2021/06/18 10:03:02;;;;;;;18.55;16.85;;;24.60;95.90;;;;;;4989854;28;20023;-86
2021/06/18 10:05:32;;;;;;;18.27;16.48;;;24.60;95.70;;;;;;4977772;28;20081;-87
2021/06/18 10:07:58;;;;;;;17.63;15.93;;;24.60;95.70;;;;;;4977995;28;20026;-86
2021/06/18 10:10:32;;;;;;;16.02;14.45;;;24.70;95.60;;;;;;4957898;28;20104;-86
2021/06/18 10:12:59;;;;;;;15.15;13.60;;;24.70;95.50;;;;;;4975088;28;20075;-87
2021/06/18 10:15:31;;;;;;;14.48;13.07;;;24.80;95.50;;;;;;4986082;28;20419;-87
2021/06/18 10:17:58;;;;;;;14.82;13.40;;;24.80;95.40;;;;;;4993292;28;20018;-87
2021/06/18 10:20:29;;;;;;;13.98;12.52;;;24.80;95.30;;;;;;4992969;28;20026;-86
2021/06/18 10:23:16;;;;;;;;;;;24.90;95.30;;;;;;4993424;28;20395;-87
2021/06/18 10:25:54;;;;;;;13.90;12.50;;;25.00;95.20;;;;;;4992376;28;19941;-87
2021/06/18 10:28:35;;;;;;;14.02;12.55;;;25.00;95.20;;;;;;4992791;28;20023;-86
2021/06/18 10:31:03;;;;;;;15.90;14.27;;;25.10;95.10;;;;;;4992661;28;20411;-88
2021/06/18 10:33:30;;;;;;;18.65;16.83;;;25.10;94.90;;;;;;4992514;28;20484;-87
2021/06/18 10:36:02;;;;;;;17.35;15.52;;;25.20;94.50;;;;;;4993469;28;20018;-86
2021/06/18 10:38:35;;;;;;;16.02;14.45;;;25.20;94.30;;;;;;4984811;28;20023;-87
2021/06/18 10:41:25;;;;;;;18.48;16.58;;;25.30;94.40;;;;;;5006642;28;20023;-87
2021/06/18 10:43:53;;;;;;;;;;;25.30;93.60;;;;;;4992618;28;20468;-87
2021/06/18 10:46:29;;;;;;;18.17;16.38;;;25.40;93.90;;;;;;4987519;28;19906;-87
2021/06/18 10:49:03;;;;;;;18.42;16.45;;;25.40;93.70;;;;;;4987380;28;20519;-88
2021/06/18 10:51:42;;;;;;;17.35;15.57;;;25.40;94.00;;;;;;4963452;28;20028;-87
2021/06/18 10:54:16;;;;;;;17.15;15.23;;;25.50;94.10;;;;;;4975614;28;20384;-88
2021/06/18 10:56:44;;;;;;;18.52;16.58;;;25.60;94.10;;;;;;4991779;28;20372;-88
2021/06/18 10:59:38;;;;;;;15.63;14.07;;;25.60;94.10;;;;;;4981085;28;20037;-88
2021/06/18 11:04:55;;;;;;;17.40;15.18;;;25.80;93.90;;;;;;4993298;28;20102;-88
2021/06/18 11:07:35;;;;;;;16.02;14.20;;;25.80;94.00;;;;;;4975854;28;20023;-88
2021/06/18 11:10:17;;;;;;;14.98;13.50;;;25.90;94.00;;;;;;4975518;28;20044;-87
2021/06/18 11:12:59;;;;;;;16.38;14.40;;;26.00;94.00;;;;;;4991685;28;20026;-87
2021/06/18 11:15:24;;;;;;;18.05;16.20;;;26.10;93.90;;;;;;4974293;28;20068;-88
2021/06/18 11:18:02;;;;;;;22.55;18.63;;;26.20;93.80;;;;;;4968775;28;20512;-88
2021/06/18 11:20:33;;;;;;;18.35;16.48;;;26.20;93.40;;;;;;4978549;28;20023;-88
2021/06/18 11:23:14;;;;;;;16.55;14.65;;;26.30;93.40;;;;;;4981891;28;20034;-87
2021/06/18 11:25:39;;;;;;;13.00;11.70;;;26.40;93.20;;;;;;4962668;28;20048;-88
2021/06/18 11:28:20;;;;;;;16.02;13.23;;;26.50;93.20;;;;;;4985205;28;20034;-88
2021/06/18 11:30:56;;;;;;;16.75;14.98;;;26.60;92.80;;;;;;4983000;28;20050;-88
2021/06/18 11:33:40;;;;;;;17.92;16.13;;;26.60;92.90;;;;;;4980065;28;20038;-88
2021/06/18 11:36:06;;;;;;;12.90;11.55;;;26.80;92.30;;;;;;4981307;28;20022;-89
2021/06/18 11:38:34;;;;;;;14.23;12.73;;;26.90;92.60;;;;;;4963827;28;20436;-88
2021/06/18 11:41:01;;;;;;;16.35;13.77;;;26.90;92.50;;;;;;4992682;28;20098;-88
2021/06/18 11:43:28;;;;;;;12.93;11.63;;;27.00;92.00;;;;;;4959353;28;20066;-88
2021/06/18 11:45:55;;;;;;;12.88;11.68;;;27.10;91.90;;;;;;4983567;28;20106;-88
2021/06/18 11:48:22;;;;;;;12.07;10.73;;;27.10;91.80;;;;;;4961297;28;20037;-88
2021/06/18 11:50:48;;;;;;;11.73;10.52;;;27.20;91.70;;;;;;4974172;28;20019;-88
2021/06/18 11:53:15;;;;;;;15.75;10.25;;;27.30;91.60;;;;;;4991100;28;20075;-89
2021/06/18 11:55:42;;;;;;;13.95;9.75;;;27.40;91.60;;;;;;4991172;28;20034;-88
2021/06/18 11:58:31;;;;;;;10.93;9.75;;;27.40;91.50;;;;;;4985846;28;20060;-89
2021/06/18 12:00:57;;;;;;;11.60;10.40;;;27.50;91.10;;;;;;4976725;28;20029;-87
2021/06/18 12:03:31;;;;;;;11.65;8.80;;;27.50;91.00;;;;;;4987884;28;20395;-88
2021/06/18 12:05:58;;;;;;;10.27;9.18;;;27.60;91.00;;;;;;4987962;28;20382;-88
2021/06/18 12:08:23;;;;;;;15.57;10.27;;;27.60;90.70;;;;;;4971123;28;20023;-88
2021/06/18 12:10:49;;;;;;;13.45;10.07;;;27.70;90.00;;;;;;4980439;28;20026;-88
2021/06/18 12:13:15;;;;;;;11.40;8.82;;;27.70;89.40;;;;;;4949642;28;20030;-88
2021/06/18 12:15:42;;;;;;;9.30;7.93;;;27.70;89.80;;;;;;4980907;28;20546;-88
2021/06/18 12:18:09;;;;;;;11.05;9.70;;;27.90;90.20;;;;;;4985957;28;20027;-88
2021/06/18 12:20:37;;;;;;;14.05;9.38;;;27.90;90.20;;;;;;4971399;28;20484;-89
2021/06/18 12:23:06;;;;;;;10.55;8.30;;;28.00;90.20;;;;;;4985787;28;20065;-88
2021/06/18 12:25:32;;;;;;;10.63;7.47;;;28.10;88.70;;;;;;4968067;28;20058;-88
2021/06/18 12:28:00;;;;;;;13.10;9.80;;;28.10;87.60;;;;;;4983836;28;20375;-88
2021/06/18 12:30:37;;;;;;;9.73;7.40;;;28.10;82.60;;;;;;4957501;28;20137;-88
2021/06/18 12:33:05;;;;;;;9.70;7.00;;;28.20;85.30;;;;;;4957888;28;20054;-88
2021/06/18 12:35:42;;;;;;;7.90;6.80;;;28.20;85.80;;;;;;4969926;28;20049;-88
2021/06/18 12:38:11;;;;;;;11.02;6.82;;;28.30;83.50;;;;;;4990765;28;20022;-88
2021/06/18 12:40:38;;;;;;;8.68;6.72;;;28.30;84.10;;;;;;4975320;28;20017;-88
2021/06/18 12:43:07;;;;;;;7.40;6.28;;;28.30;83.10;;;;;;4987101;28;20155;-88
2021/06/18 12:45:36;;;;;;;11.85;8.25;;;28.40;83.10;;;;;;4968127;28;20019;-88
2021/06/18 12:48:09;;;;;;;8.65;6.13;;;28.40;81.70;;;;;;4990061;28;20026;-88
2021/06/18 12:50:42;;;;;;;8.02;6.43;;;28.50;82.40;;;;;;4986512;28;20019;-88